sensor_id;sensor_type;location;lat;lon;timestamp;temperature;humidity
65040;HTU21D;51606;45.000;38.612;2023-04-24T00:01:00;7.61;69.83
65040;HTU21D;51606;45.000;38.612;2023-04-24T00:03:27;7.59;69.87
65040;HTU21D;51606;45.000;38.612;2023-04-24T00:05:54;7.54;69.92
65040;HTU21D;51606;45.000;38.612;2023-04-24T00:08:21;7.52;69.99
65040;HTU21D;51606;45.000;38.612;2023-04-24T00:10:48;7.48;70.00
65040;HTU21D;51606;45.000;38.612;2023-04-24T00:13:14;7.45;70.04
65040;HTU21D;51606;45.000;38.612;2023-04-24T00:15:41;7.42;70.10
65040;HTU21D;51606;45.000;38.612;2023-04-24T00:18:07;7.41;70.09
65040;HTU21D;51606;45.000;38.612;2023-04-24T00:20:34;7.40;70.10
65040;HTU21D;51606;45.000;38.612;2023-04-24T00:23:01;7.39;70.09
65040;HTU21D;51606;45.000;38.612;2023-04-24T00:25:28;7.38;70.11
65040;HTU21D;51606;45.000;38.612;2023-04-24T00:27:54;7.35;70.11
65040;HTU21D;51606;45.000;38.612;2023-04-24T00:30:24;7.35;70.13
65040;HTU21D;51606;45.000;38.612;2023-04-24T00:32:50;7.33;70.13
65040;HTU21D;51606;45.000;38.612;2023-04-24T00:35:17;7.31;70.18
65040;HTU21D;51606;45.000;38.612;2023-04-24T00:37:46;7.28;70.23
65040;HTU21D;51606;45.000;38.612;2023-04-24T00:40:12;7.22;70.32
65040;HTU21D;51606;45.000;38.612;2023-04-24T00:42:40;7.17;70.42
65040;HTU21D;51606;45.000;38.612;2023-04-24T00:45:07;7.12;70.48
65040;HTU21D;51606;45.000;38.612;2023-04-24T00:47:33;7.11;70.48
65040;HTU21D;51606;45.000;38.612;2023-04-24T00:50:04;7.10;70.49
65040;HTU21D;51606;45.000;38.612;2023-04-24T00:52:31;7.07;70.48
65040;HTU21D;51606;45.000;38.612;2023-04-24T00:54:58;7.05;70.48
65040;HTU21D;51606;45.000;38.612;2023-04-24T00:57:26;7.05;70.48
65040;HTU21D;51606;45.000;38.612;2023-04-24T01:41:08;7.30;69.65
65040;HTU21D;51606;45.000;38.612;2023-04-24T01:43:34;7.41;69.60
65040;HTU21D;51606;45.000;38.612;2023-04-24T01:46:01;7.48;69.55
65040;HTU21D;51606;45.000;38.612;2023-04-24T01:48:28;7.55;69.55
65040;HTU21D;51606;45.000;38.612;2023-04-24T01:50:56;7.60;69.58
65040;HTU21D;51606;45.000;38.612;2023-04-24T01:53:22;7.65;69.60
65040;HTU21D;51606;45.000;38.612;2023-04-24T01:55:49;7.71;69.60
65040;HTU21D;51606;45.000;38.612;2023-04-24T01:58:15;7.76;69.64
65040;HTU21D;51606;45.000;38.612;2023-04-24T02:00:42;7.81;69.65
65040;HTU21D;51606;45.000;38.612;2023-04-24T02:03:08;7.87;69.67
65040;HTU21D;51606;45.000;38.612;2023-04-24T02:05:34;7.92;69.68
65040;HTU21D;51606;45.000;38.612;2023-04-24T02:08:02;7.94;69.73
65040;HTU21D;51606;45.000;38.612;2023-04-24T02:10:29;7.96;69.81
65040;HTU21D;51606;45.000;38.612;2023-04-24T02:12:58;8.00;69.86
65040;HTU21D;51606;45.000;38.612;2023-04-24T02:15:25;8.02;69.91
65040;HTU21D;51606;45.000;38.612;2023-04-24T02:17:52;8.04;69.99
65040;HTU21D;51606;45.000;38.612;2023-04-24T02:20:18;8.05;70.03
65040;HTU21D;51606;45.000;38.612;2023-04-24T02:22:44;8.08;70.07
65040;HTU21D;51606;45.000;38.612;2023-04-24T02:25:11;8.13;70.07
65040;HTU21D;51606;45.000;38.612;2023-04-24T02:27:37;8.18;70.06
65040;HTU21D;51606;45.000;38.612;2023-04-24T02:30:06;8.22;70.06
65040;HTU21D;51606;45.000;38.612;2023-04-24T02:32:33;8.28;70.02
65040;HTU21D;51606;45.000;38.612;2023-04-24T02:35:00;8.33;70.02
65040;HTU21D;51606;45.000;38.612;2023-04-24T02:37:26;8.37;69.99
65040;HTU21D;51606;45.000;38.612;2023-04-24T02:39:52;8.41;70.00
65040;HTU21D;51606;45.000;38.612;2023-04-24T02:42:19;8.43;70.04
65040;HTU21D;51606;45.000;38.612;2023-04-24T02:44:45;8.47;70.07
65040;HTU21D;51606;45.000;38.612;2023-04-24T02:47:11;8.50;70.07
65040;HTU21D;51606;45.000;38.612;2023-04-24T02:49:38;8.56;70.10
65040;HTU21D;51606;45.000;38.612;2023-04-24T02:52:04;8.60;70.12
65040;HTU21D;51606;45.000;38.612;2023-04-24T02:54:31;8.64;70.10
65040;HTU21D;51606;45.000;38.612;2023-04-24T02:56:57;8.72;70.10
65040;HTU21D;51606;45.000;38.612;2023-04-24T02:59:25;8.76;70.09
65040;HTU21D;51606;45.000;38.612;2023-04-24T03:01:53;8.81;70.07
65040;HTU21D;51606;45.000;38.612;2023-04-24T03:04:20;8.89;70.04
65040;HTU21D;51606;45.000;38.612;2023-04-24T03:06:46;8.96;70.00
65040;HTU21D;51606;45.000;38.612;2023-04-24T03:09:12;9.05;69.97
65040;HTU21D;51606;45.000;38.612;2023-04-24T03:11:39;9.12;69.92
65040;HTU21D;51606;45.000;38.612;2023-04-24T03:14:08;9.22;69.87
65040;HTU21D;51606;45.000;38.612;2023-04-24T03:16:38;9.30;69.81
65040;HTU21D;51606;45.000;38.612;2023-04-24T03:19:06;9.37;69.77
65040;HTU21D;51606;45.000;38.612;2023-04-24T03:21:38;9.44;69.76
65040;HTU21D;51606;45.000;38.612;2023-04-24T03:24:08;9.49;69.78
65040;HTU21D;51606;45.000;38.612;2023-04-24T03:26:36;9.52;69.80
65040;HTU21D;51606;45.000;38.612;2023-04-24T03:29:20;9.59;69.78
65040;HTU21D;51606;45.000;38.612;2023-04-24T03:31:47;9.64;69.81
65040;HTU21D;51606;45.000;38.612;2023-04-24T03:34:13;9.70;69.82
65040;HTU21D;51606;45.000;38.612;2023-04-24T03:36:40;9.77;69.80
65040;HTU21D;51606;45.000;38.612;2023-04-24T03:39:08;9.82;69.81
65040;HTU21D;51606;45.000;38.612;2023-04-24T03:41:36;9.86;69.81
65040;HTU21D;51606;45.000;38.612;2023-04-24T03:44:09;9.90;69.81
65040;HTU21D;51606;45.000;38.612;2023-04-24T03:46:36;9.93;69.86
65040;HTU21D;51606;45.000;38.612;2023-04-24T03:49:03;9.94;69.90
65040;HTU21D;51606;45.000;38.612;2023-04-24T03:51:33;9.95;69.96
65040;HTU21D;51606;45.000;38.612;2023-04-24T03:54:14;9.97;70.02
65040;HTU21D;51606;45.000;38.612;2023-04-24T03:56:41;9.97;70.10
65040;HTU21D;51606;45.000;38.612;2023-04-24T03:59:07;9.97;70.17
65040;HTU21D;51606;45.000;38.612;2023-04-24T04:01:35;9.97;70.23
65040;HTU21D;51606;45.000;38.612;2023-04-24T04:04:12;9.98;70.26
65040;HTU21D;51606;45.000;38.612;2023-04-24T04:06:41;10.00;70.29
65040;HTU21D;51606;45.000;38.612;2023-04-24T04:09:08;10.03;70.32
65040;HTU21D;51606;45.000;38.612;2023-04-24T04:11:36;10.03;70.36
65040;HTU21D;51606;45.000;38.612;2023-04-24T04:14:02;10.04;70.39
65040;HTU21D;51606;45.000;38.612;2023-04-24T04:16:31;10.03;70.44
65040;HTU21D;51606;45.000;38.612;2023-04-24T04:19:02;10.05;70.48
65040;HTU21D;51606;45.000;38.612;2023-04-24T04:21:30;10.08;70.49
65040;HTU21D;51606;45.000;38.612;2023-04-24T04:24:08;10.11;70.46
65040;HTU21D;51606;45.000;38.612;2023-04-24T04:26:42;10.15;70.43
65040;HTU21D;51606;45.000;38.612;2023-04-24T04:29:13;10.18;70.42
65040;HTU21D;51606;45.000;38.612;2023-04-24T04:31:43;10.23;70.42
65040;HTU21D;51606;45.000;38.612;2023-04-24T04:34:12;10.27;70.41
65040;HTU21D;51606;45.000;38.612;2023-04-24T04:36:41;10.34;70.40
65040;HTU21D;51606;45.000;38.612;2023-04-24T04:39:38;10.41;70.31
65040;HTU21D;51606;45.000;38.612;2023-04-24T04:42:08;10.49;70.26
65040;HTU21D;51606;45.000;38.612;2023-04-24T04:44:41;10.54;70.20
65040;HTU21D;51606;45.000;38.612;2023-04-24T04:47:10;10.58;70.19
65040;HTU21D;51606;45.000;38.612;2023-04-24T04:49:38;10.62;70.21
65040;HTU21D;51606;45.000;38.612;2023-04-24T04:52:09;10.67;70.23
65040;HTU21D;51606;45.000;38.612;2023-04-24T04:54:36;10.68;70.25
65040;HTU21D;51606;45.000;38.612;2023-04-24T04:57:02;10.71;70.30
65040;HTU21D;51606;45.000;38.612;2023-04-24T04:59:29;10.73;70.35
65040;HTU21D;51606;45.000;38.612;2023-04-24T05:02:02;10.75;70.39
65040;HTU21D;51606;45.000;38.612;2023-04-24T05:04:29;10.80;70.42
65040;HTU21D;51606;45.000;38.612;2023-04-24T05:06:56;10.83;70.42
65040;HTU21D;51606;45.000;38.612;2023-04-24T05:09:24;10.89;70.44
65040;HTU21D;51606;45.000;38.612;2023-04-24T05:11:56;10.96;70.41
65040;HTU21D;51606;45.000;38.612;2023-04-24T05:14:25;11.04;70.39
65040;HTU21D;51606;45.000;38.612;2023-04-24T05:16:51;11.11;70.35
65040;HTU21D;51606;45.000;38.612;2023-04-24T05:19:20;11.17;70.35
65040;HTU21D;51606;45.000;38.612;2023-04-24T05:21:46;11.23;70.32
65040;HTU21D;51606;45.000;38.612;2023-04-24T05:24:14;11.26;70.31
65040;HTU21D;51606;45.000;38.612;2023-04-24T05:26:59;11.27;70.35
65040;HTU21D;51606;45.000;38.612;2023-04-24T05:29:33;11.29;70.39
65040;HTU21D;51606;45.000;38.612;2023-04-24T05:32:00;11.27;70.45
65040;HTU21D;51606;45.000;38.612;2023-04-24T05:34:29;11.29;70.52
65040;HTU21D;51606;45.000;38.612;2023-04-24T05:36:56;11.28;70.59
65040;HTU21D;51606;45.000;38.612;2023-04-24T05:39:23;11.30;70.61
65040;HTU21D;51606;45.000;38.612;2023-04-24T05:41:51;11.29;70.71
65040;HTU21D;51606;45.000;38.612;2023-04-24T05:44:17;11.30;70.77
65040;HTU21D;51606;45.000;38.612;2023-04-24T05:46:44;11.34;70.77
65040;HTU21D;51606;45.000;38.612;2023-04-24T05:49:11;11.39;70.74
65040;HTU21D;51606;45.000;38.612;2023-04-24T05:51:37;11.44;70.71
65040;HTU21D;51606;45.000;38.612;2023-04-24T05:54:06;11.52;70.61
65040;HTU21D;51606;45.000;38.612;2023-04-24T05:56:32;11.58;70.58
65040;HTU21D;51606;45.000;38.612;2023-04-24T05:59:01;11.69;70.50
65040;HTU21D;51606;45.000;38.612;2023-04-24T06:01:27;11.76;70.38
65040;HTU21D;51606;45.000;38.612;2023-04-24T06:04:05;11.84;70.34
65040;HTU21D;51606;45.000;38.612;2023-04-24T06:06:32;11.91;70.27
65040;HTU21D;51606;45.000;38.612;2023-04-24T06:08:59;11.94;70.26
65040;HTU21D;51606;45.000;38.612;2023-04-24T06:11:27;12.01;70.28
65040;HTU21D;51606;45.000;38.612;2023-04-24T06:13:54;12.11;70.23
65040;HTU21D;51606;45.000;38.612;2023-04-24T06:16:41;12.23;70.09
65040;HTU21D;51606;45.000;38.612;2023-04-24T06:19:18;12.43;69.94
65040;HTU21D;51606;45.000;38.612;2023-04-24T06:21:45;12.69;69.71
65040;HTU21D;51606;45.000;38.612;2023-04-24T06:24:13;12.99;69.41
65040;HTU21D;51606;45.000;38.612;2023-04-24T06:26:40;13.31;69.12
65040;HTU21D;51606;45.000;38.612;2023-04-24T06:29:07;13.66;68.81
65040;HTU21D;51606;45.000;38.612;2023-04-24T06:31:35;14.01;68.53
65040;HTU21D;51606;45.000;38.612;2023-04-24T06:34:03;14.37;68.30
65040;HTU21D;51606;45.000;38.612;2023-04-24T06:36:30;14.74;68.06
65040;HTU21D;51606;45.000;38.612;2023-04-24T06:38:57;15.01;67.85
65040;HTU21D;51606;45.000;38.612;2023-04-24T06:41:23;15.12;67.87
65040;HTU21D;51606;45.000;38.612;2023-04-24T06:43:50;15.19;67.95
65040;HTU21D;51606;45.000;38.612;2023-04-24T06:46:16;15.29;68.07
65040;HTU21D;51606;45.000;38.612;2023-04-24T06:48:43;15.42;68.06
65040;HTU21D;51606;45.000;38.612;2023-04-24T06:51:09;15.53;68.03
65040;HTU21D;51606;45.000;38.612;2023-04-24T06:53:35;15.67;68.02
65040;HTU21D;51606;45.000;38.612;2023-04-24T06:56:02;15.81;67.94
65040;HTU21D;51606;45.000;38.612;2023-04-24T06:58:30;15.91;67.84
65040;HTU21D;51606;45.000;38.612;2023-04-24T07:00:57;16.02;67.83
65040;HTU21D;51606;45.000;38.612;2023-04-24T07:03:23;16.14;67.83
65040;HTU21D;51606;45.000;38.612;2023-04-24T07:05:49;16.30;67.75
65040;HTU21D;51606;45.000;38.612;2023-04-24T07:08:17;16.45;67.64
65040;HTU21D;51606;45.000;38.612;2023-04-24T07:21:45;17.22;67.13
65040;HTU21D;51606;45.000;38.612;2023-04-24T07:24:12;17.40;66.98
65040;HTU21D;51606;45.000;38.612;2023-04-24T07:26:38;17.51;66.88
65040;HTU21D;51606;45.000;38.612;2023-04-24T07:29:06;17.56;66.92
65040;HTU21D;51606;45.000;38.612;2023-04-24T07:31:33;17.64;66.92
65040;HTU21D;51606;45.000;38.612;2023-04-24T07:33:59;17.66;66.94
65040;HTU21D;51606;45.000;38.612;2023-04-24T07:36:26;17.62;67.03
65040;HTU21D;51606;45.000;38.612;2023-04-24T07:38:54;17.55;67.13
65040;HTU21D;51606;45.000;38.612;2023-04-24T07:41:21;17.41;67.34
65040;HTU21D;51606;45.000;38.612;2023-04-24T07:43:47;17.31;67.53
65040;HTU21D;51606;45.000;38.612;2023-04-24T07:46:13;17.24;67.65
65040;HTU21D;51606;45.000;38.612;2023-04-24T07:48:40;17.19;67.70
65040;HTU21D;51606;45.000;38.612;2023-04-24T07:51:06;17.14;67.74
65040;HTU21D;51606;45.000;38.612;2023-04-24T07:53:36;17.11;67.78
65040;HTU21D;51606;45.000;38.612;2023-04-24T07:56:02;17.09;67.76
65040;HTU21D;51606;45.000;38.612;2023-04-24T07:58:28;17.02;67.77
65040;HTU21D;51606;45.000;38.612;2023-04-24T08:00:55;16.87;68.03
65040;HTU21D;51606;45.000;38.612;2023-04-24T08:03:21;16.79;68.10
65040;HTU21D;51606;45.000;38.612;2023-04-24T08:05:47;16.72;68.19
65040;HTU21D;51606;45.000;38.612;2023-04-24T08:08:14;16.57;68.32
65040;HTU21D;51606;45.000;38.612;2023-04-24T08:10:40;16.35;68.50
65040;HTU21D;51606;45.000;38.612;2023-04-24T08:13:07;16.24;68.72
65040;HTU21D;51606;45.000;38.612;2023-04-24T08:15:34;16.20;68.68
65040;HTU21D;51606;45.000;38.612;2023-04-24T08:18:00;16.14;68.65
65040;HTU21D;51606;45.000;38.612;2023-04-24T08:20:27;16.05;68.68
65040;HTU21D;51606;45.000;38.612;2023-04-24T08:22:53;15.93;68.76
65040;HTU21D;51606;45.000;38.612;2023-04-24T08:25:20;15.82;68.91
65040;HTU21D;51606;45.000;38.612;2023-04-24T08:27:49;15.73;68.96
65040;HTU21D;51606;45.000;38.612;2023-04-24T08:30:15;15.68;69.00
65040;HTU21D;51606;45.000;38.612;2023-04-24T08:32:41;15.61;68.99
65040;HTU21D;51606;45.000;38.612;2023-04-24T08:35:08;15.55;68.98
65040;HTU21D;51606;45.000;38.612;2023-04-24T08:37:35;15.45;69.07
65040;HTU21D;51606;45.000;38.612;2023-04-24T08:40:15;15.39;69.16
65040;HTU21D;51606;45.000;38.612;2023-04-24T08:42:43;15.28;69.20
65040;HTU21D;51606;45.000;38.612;2023-04-24T08:45:13;15.18;69.36
65040;HTU21D;51606;45.000;38.612;2023-04-24T08:47:40;15.10;69.40
65040;HTU21D;51606;45.000;38.612;2023-04-24T08:50:08;15.04;69.44
65040;HTU21D;51606;45.000;38.612;2023-04-24T08:52:35;14.96;69.52
65040;HTU21D;51606;45.000;38.612;2023-04-24T08:55:02;14.91;69.59
65040;HTU21D;51606;45.000;38.612;2023-04-24T08:57:29;14.86;69.61
65040;HTU21D;51606;45.000;38.612;2023-04-24T08:59:56;14.84;69.64
65040;HTU21D;51606;45.000;38.612;2023-04-24T09:02:24;14.84;69.61
65040;HTU21D;51606;45.000;38.612;2023-04-24T09:04:51;14.86;69.53
65040;HTU21D;51606;45.000;38.612;2023-04-24T09:07:19;14.87;69.48
65040;HTU21D;51606;45.000;38.612;2023-04-24T09:09:45;14.87;69.44
65040;HTU21D;51606;45.000;38.612;2023-04-24T09:12:12;14.91;69.39
65040;HTU21D;51606;45.000;38.612;2023-04-24T09:14:38;14.95;69.35
65040;HTU21D;51606;45.000;38.612;2023-04-24T09:17:06;14.94;69.31
65040;HTU21D;51606;45.000;38.612;2023-04-24T09:19:32;14.91;69.36
65040;HTU21D;51606;45.000;38.612;2023-04-24T09:21:59;14.82;69.51
65040;HTU21D;51606;45.000;38.612;2023-04-24T09:24:25;14.77;69.65
65040;HTU21D;51606;45.000;38.612;2023-04-24T09:26:58;14.77;69.80
65040;HTU21D;51606;45.000;38.612;2023-04-24T09:29:25;14.75;69.74
65040;HTU21D;51606;45.000;38.612;2023-04-24T09:31:51;14.78;69.73
65040;HTU21D;51606;45.000;38.612;2023-04-24T09:34:25;14.75;69.81
65040;HTU21D;51606;45.000;38.612;2023-04-24T09:36:52;14.70;69.85
65040;HTU21D;51606;45.000;38.612;2023-04-24T09:39:19;14.67;69.95
65040;HTU21D;51606;45.000;38.612;2023-04-24T09:41:49;14.62;69.99
65040;HTU21D;51606;45.000;38.612;2023-04-24T09:44:18;14.56;70.13
65040;HTU21D;51606;45.000;38.612;2023-04-24T09:46:54;14.52;70.31
65040;HTU21D;51606;45.000;38.612;2023-04-24T09:49:23;14.52;70.30
65040;HTU21D;51606;45.000;38.612;2023-04-24T09:51:50;14.48;70.32
65040;HTU21D;51606;45.000;38.612;2023-04-24T09:54:19;14.41;70.45
65040;HTU21D;51606;45.000;38.612;2023-04-24T09:56:50;14.36;70.58
65040;HTU21D;51606;45.000;38.612;2023-04-24T09:59:18;14.34;70.64
65040;HTU21D;51606;45.000;38.612;2023-04-24T10:01:45;14.28;70.73
65040;HTU21D;51606;45.000;38.612;2023-04-24T10:04:30;14.32;70.84
65040;HTU21D;51606;45.000;38.612;2023-04-24T10:06:57;14.30;70.69
65040;HTU21D;51606;45.000;38.612;2023-04-24T10:09:26;14.28;70.76
65040;HTU21D;51606;45.000;38.612;2023-04-24T10:11:53;14.33;70.72
65040;HTU21D;51606;45.000;38.612;2023-04-24T10:14:22;14.38;70.66
65040;HTU21D;51606;45.000;38.612;2023-04-24T10:16:49;0.00;70.59
65040;HTU21D;51606;45.000;38.612;2023-04-24T10:19:16;14.47;70.55
65040;HTU21D;51606;45.000;38.612;2023-04-24T10:21:46;14.51;70.48
65040;HTU21D;51606;45.000;38.612;2023-04-24T10:24:18;14.53;70.55
65040;HTU21D;51606;45.000;38.612;2023-04-24T10:26:46;14.53;70.51
65040;HTU21D;51606;45.000;38.612;2023-04-24T10:29:16;14.56;70.56
65040;HTU21D;51606;45.000;38.612;2023-04-24T10:31:43;14.58;70.53
65040;HTU21D;51606;45.000;38.612;2023-04-24T10:34:15;14.62;70.56
65040;HTU21D;51606;45.000;38.612;2023-04-24T10:36:46;14.65;70.62
65040;HTU21D;51606;45.000;38.612;2023-04-24T10:39:14;14.65;70.61
65040;HTU21D;51606;45.000;38.612;2023-04-24T10:41:42;14.62;70.69
65040;HTU21D;51606;45.000;38.612;2023-04-24T10:44:12;14.56;70.87
65040;HTU21D;51606;45.000;38.612;2023-04-24T10:46:43;14.51;71.03
65040;HTU21D;51606;45.000;38.612;2023-04-24T10:49:10;14.52;71.08
65040;HTU21D;51606;45.000;38.612;2023-04-24T10:51:48;14.57;71.12
65040;HTU21D;51606;45.000;38.612;2023-04-24T10:54:35;14.65;70.98
65040;HTU21D;51606;45.000;38.612;2023-04-24T11:02:39;14.88;70.64
65040;HTU21D;51606;45.000;38.612;2023-04-24T11:05:07;14.95;70.59
65040;HTU21D;51606;45.000;38.612;2023-04-24T11:10:54;15.07;70.48
65040;HTU21D;51606;45.000;38.612;2023-04-24T11:13:25;15.11;70.55
65040;HTU21D;51606;45.000;38.612;2023-04-24T11:19:03;15.16;70.61
65040;HTU21D;51606;45.000;38.612;2023-04-24T11:24:24;15.11;70.86
65040;HTU21D;51606;45.000;38.612;2023-04-24T11:26:55;15.03;70.96
65040;HTU21D;51606;45.000;38.612;2023-04-24T11:29:23;15.01;71.08
65040;HTU21D;51606;45.000;38.612;2023-04-24T11:35:00;15.12;71.02
65040;HTU21D;51606;45.000;38.612;2023-04-24T11:37:36;15.15;71.03
65040;HTU21D;51606;45.000;38.612;2023-04-24T11:40:04;15.16;71.03
65040;HTU21D;51606;45.000;38.612;2023-04-24T11:42:39;15.21;71.05
65040;HTU21D;51606;45.000;38.612;2023-04-24T11:45:16;15.26;70.97
65040;HTU21D;51606;45.000;38.612;2023-04-24T11:47:43;15.32;70.92
65040;HTU21D;51606;45.000;38.612;2023-04-24T11:50:12;15.36;70.95
65040;HTU21D;51606;45.000;38.612;2023-04-24T11:52:41;15.33;71.06
65040;HTU21D;51606;45.000;38.612;2023-04-24T11:57:49;15.29;71.22
65040;HTU21D;51606;45.000;38.612;2023-04-24T12:00:23;15.26;71.35
65040;HTU21D;51606;45.000;38.612;2023-04-24T12:02:50;15.22;71.38
65040;HTU21D;51606;45.000;38.612;2023-04-24T12:05:24;15.19;71.50
65040;HTU21D;51606;45.000;38.612;2023-04-24T12:07:51;15.15;71.37
65040;HTU21D;51606;45.000;38.612;2023-04-24T12:10:26;15.09;71.48
65040;HTU21D;51606;45.000;38.612;2023-04-24T12:12:54;15.00;71.60
65040;HTU21D;51606;45.000;38.612;2023-04-24T12:15:21;14.94;71.77
65040;HTU21D;51606;45.000;38.612;2023-04-24T12:17:50;14.87;71.91
65040;HTU21D;51606;45.000;38.612;2023-04-24T12:20:17;14.81;72.01
65040;HTU21D;51606;45.000;38.612;2023-04-24T12:22:47;14.75;72.13
65040;HTU21D;51606;45.000;38.612;2023-04-24T12:25:18;14.70;72.22
65040;HTU21D;51606;45.000;38.612;2023-04-24T12:27:46;14.67;72.21
65040;HTU21D;51606;45.000;38.612;2023-04-24T12:30:15;14.62;72.23
65040;HTU21D;51606;45.000;38.612;2023-04-24T12:32:46;14.56;72.28
65040;HTU21D;51606;45.000;38.612;2023-04-24T12:35:20;14.50;72.31
65040;HTU21D;51606;45.000;38.612;2023-04-24T12:37:47;14.47;72.33
65040;HTU21D;51606;45.000;38.612;2023-04-24T12:40:14;14.49;72.35
65040;HTU21D;51606;45.000;38.612;2023-04-24T12:42:51;14.56;72.37
65040;HTU21D;51606;45.000;38.612;2023-04-24T12:45:18;14.62;72.15
65040;HTU21D;51606;45.000;38.612;2023-04-24T12:47:45;14.59;72.11
65040;HTU21D;51606;45.000;38.612;2023-04-24T12:50:14;14.55;72.25
65040;HTU21D;51606;45.000;38.612;2023-04-24T12:52:41;14.50;72.35
65040;HTU21D;51606;45.000;38.612;2023-04-24T12:55:08;14.47;72.45
65040;HTU21D;51606;45.000;38.612;2023-04-24T12:57:36;14.48;72.45
65040;HTU21D;51606;45.000;38.612;2023-04-24T13:00:04;14.49;72.45
65040;HTU21D;51606;45.000;38.612;2023-04-24T13:02:31;14.51;72.43
65040;HTU21D;51606;45.000;38.612;2023-04-24T13:04:58;14.55;72.41
65040;HTU21D;51606;45.000;38.612;2023-04-24T13:07:25;14.58;72.35
65040;HTU21D;51606;45.000;38.612;2023-04-24T13:09:52;14.64;72.28
65040;HTU21D;51606;45.000;38.612;2023-04-24T13:12:19;14.71;72.24
65040;HTU21D;51606;45.000;38.612;2023-04-24T13:14:46;14.77;72.09
65040;HTU21D;51606;45.000;38.612;2023-04-24T13:17:13;14.82;72.10
65040;HTU21D;51606;45.000;38.612;2023-04-24T14:00:55;14.60;72.35
65040;HTU21D;51606;45.000;38.612;2023-04-24T14:03:21;14.63;72.38
65040;HTU21D;51606;45.000;38.612;2023-04-24T14:05:48;14.66;72.38
65040;HTU21D;51606;45.000;38.612;2023-04-24T14:08:14;14.70;72.37
65040;HTU21D;51606;45.000;38.612;2023-04-24T14:10:40;14.74;72.36
65040;HTU21D;51606;45.000;38.612;2023-04-24T14:13:07;14.77;72.39
65040;HTU21D;51606;45.000;38.612;2023-04-24T14:15:34;14.81;72.41
65040;HTU21D;51606;45.000;38.612;2023-04-24T14:18:01;14.87;72.38
65040;HTU21D;51606;45.000;38.612;2023-04-24T14:20:29;14.94;72.35
65040;HTU21D;51606;45.000;38.612;2023-04-24T14:22:55;14.98;72.32
65040;HTU21D;51606;45.000;38.612;2023-04-24T14:25:24;14.98;72.37
65040;HTU21D;51606;45.000;38.612;2023-04-24T14:27:51;15.03;72.35
65040;HTU21D;51606;45.000;38.612;2023-04-24T14:30:18;15.06;72.32
65040;HTU21D;51606;45.000;38.612;2023-04-24T14:32:45;15.07;72.32
65040;HTU21D;51606;45.000;38.612;2023-04-24T14:35:12;15.03;72.42
65040;HTU21D;51606;45.000;38.612;2023-04-24T14:37:38;15.00;72.55
65040;HTU21D;51606;45.000;38.612;2023-04-24T14:40:07;14.98;72.64
65040;HTU21D;51606;45.000;38.612;2023-04-24T14:42:34;14.91;72.72
65040;HTU21D;51606;45.000;38.612;2023-04-24T14:45:01;14.84;72.90
65040;HTU21D;51606;45.000;38.612;2023-04-24T14:47:28;14.75;73.03
65040;HTU21D;51606;45.000;38.612;2023-04-24T14:49:55;14.65;73.15
65040;HTU21D;51606;45.000;38.612;2023-04-24T14:52:21;14.53;73.43
65040;HTU21D;51606;45.000;38.612;2023-04-24T14:54:47;14.44;73.57
65040;HTU21D;51606;45.000;38.612;2023-04-24T14:57:14;14.37;73.64
65040;HTU21D;51606;45.000;38.612;2023-04-24T14:59:40;14.29;73.73
65040;HTU21D;51606;45.000;38.612;2023-04-24T15:02:07;14.23;73.80
65040;HTU21D;51606;45.000;38.612;2023-04-24T15:04:33;14.15;73.93
65040;HTU21D;51606;45.000;38.612;2023-04-24T15:06:59;14.09;74.02
65040;HTU21D;51606;45.000;38.612;2023-04-24T15:09:26;14.01;74.11
65040;HTU21D;51606;45.000;38.612;2023-04-24T15:11:53;13.93;74.17
65040;HTU21D;51606;45.000;38.612;2023-04-24T15:14:19;13.89;74.24
65040;HTU21D;51606;45.000;38.612;2023-04-24T15:16:46;13.81;74.28
65040;HTU21D;51606;45.000;38.612;2023-04-24T15:19:12;13.76;74.31
65040;HTU21D;51606;45.000;38.612;2023-04-24T15:21:38;13.69;74.35
65040;HTU21D;51606;45.000;38.612;2023-04-24T15:24:07;13.65;74.38
65040;HTU21D;51606;45.000;38.612;2023-04-24T15:26:34;13.60;74.41
65040;HTU21D;51606;45.000;38.612;2023-04-24T15:29:01;13.58;74.44
65040;HTU21D;51606;45.000;38.612;2023-04-24T15:31:27;13.52;74.46
65040;HTU21D;51606;45.000;38.612;2023-04-24T15:33:54;13.49;74.50
65040;HTU21D;51606;45.000;38.612;2023-04-24T15:36:21;13.44;74.51
65040;HTU21D;51606;45.000;38.612;2023-04-24T15:38:47;13.39;74.54
65040;HTU21D;51606;45.000;38.612;2023-04-24T15:41:13;13.36;74.55
65040;HTU21D;51606;45.000;38.612;2023-04-24T15:43:40;13.32;74.59
65040;HTU21D;51606;45.000;38.612;2023-04-24T15:46:07;13.26;74.64
65040;HTU21D;51606;45.000;38.612;2023-04-24T15:48:34;13.21;74.72
65040;HTU21D;51606;45.000;38.612;2023-04-24T15:51:00;13.16;74.77
65040;HTU21D;51606;45.000;38.612;2023-04-24T15:53:27;13.09;74.84
65040;HTU21D;51606;45.000;38.612;2023-04-24T15:55:54;13.06;74.91
65040;HTU21D;51606;45.000;38.612;2023-04-24T15:58:25;13.02;74.92
65040;HTU21D;51606;45.000;38.612;2023-04-24T16:00:51;12.96;74.99
65040;HTU21D;51606;45.000;38.612;2023-04-24T16:03:19;12.91;75.05
65040;HTU21D;51606;45.000;38.612;2023-04-24T16:05:46;12.89;75.09
65040;HTU21D;51606;45.000;38.612;2023-04-24T16:08:12;12.85;75.12
65040;HTU21D;51606;45.000;38.612;2023-04-24T16:10:42;12.82;75.13
65040;HTU21D;51606;45.000;38.612;2023-04-24T16:13:09;12.79;75.17
65040;HTU21D;51606;45.000;38.612;2023-04-24T16:15:35;12.75;75.21
65040;HTU21D;51606;45.000;38.612;2023-04-24T16:18:02;12.72;75.23
65040;HTU21D;51606;45.000;38.612;2023-04-24T16:20:28;12.67;75.30
65040;HTU21D;51606;45.000;38.612;2023-04-24T16:22:54;12.65;75.35
65040;HTU21D;51606;45.000;38.612;2023-04-24T16:25:21;12.64;75.38
65040;HTU21D;51606;45.000;38.612;2023-04-24T16:27:49;12.63;75.43
65040;HTU21D;51606;45.000;38.612;2023-04-24T16:30:18;12.63;75.44
65040;HTU21D;51606;45.000;38.612;2023-04-24T16:32:45;12.62;75.42
65040;HTU21D;51606;45.000;38.612;2023-04-24T16:35:12;12.63;75.42
65040;HTU21D;51606;45.000;38.612;2023-04-24T16:37:38;12.61;75.46
65040;HTU21D;51606;45.000;38.612;2023-04-24T16:40:05;12.60;75.57
65040;HTU21D;51606;45.000;38.612;2023-04-24T16:42:36;12.59;75.60
65040;HTU21D;51606;45.000;38.612;2023-04-24T16:45:03;12.57;75.65
65040;HTU21D;51606;45.000;38.612;2023-04-24T16:47:30;12.55;75.70
65040;HTU21D;51606;45.000;38.612;2023-04-24T16:49:56;12.53;75.76
65040;HTU21D;51606;45.000;38.612;2023-04-24T16:52:22;12.48;75.86
65040;HTU21D;51606;45.000;38.612;2023-04-24T16:54:49;12.47;75.99
65040;HTU21D;51606;45.000;38.612;2023-04-24T16:57:15;12.44;76.06
65040;HTU21D;51606;45.000;38.612;2023-04-24T16:59:41;12.42;76.12
65040;HTU21D;51606;45.000;38.612;2023-04-24T17:02:08;12.38;76.16
65040;HTU21D;51606;45.000;38.612;2023-04-24T17:04:34;12.34;76.28